Aérodrome :







RETROUVEZ-NOUS SUR...

 
LOGIN :

S'inscrire | Disclaimer

   EN    FR    IT 

 









Légende :    VFR   VFR Marginal   IFR   IFR Intensif   IFR Très Intensif
Visi : 
Plafond : 
>= 8 km
>= 3000ft
5 à 8 km
1000 à 3000 ft
1500m à 5 km
500 à 1000 ft
800 à 1500m
200 à 500 ft
< 800m
< 200 ft
Symboles :   Orages  Brouillard  Fortes neiges  Fortes précipitations  Vent > 20 kt






- Altitude de l'aérodrome : 1709 ft
- Code IATA : YKL


CYKL - Schefferville

DERNIER METAR :
  • 070100Z AUTO 32011G18KT 9SM -SN OVC050 M16/M19 A2958 RMK SLP067

METARs EXPIRÉS :
  • 070020Z AUTO 32012G18KT 6SM -SN OVC050 M16/M18 A2957 RMK SLP066
  • 070000Z AUTO 33011KT 5SM -SN OVC050 M16/M18 A2957 RMK SLP065
  • 062300Z AUTO 32010G17KT 3SM -SN OVC043 M15/M18 A2955 RMK SLP058
  • 062255Z AUTO 32011G17KT 5SM -SN OVC043 M15/M18 A2955 RMK SLP058

TAF TAF CYKL
Valide du 07 à 02h jusqu'au 07 à 14h UTC


070138Z 0702/0714 32012G22KT 6SM -SN OVC040
TEMPO 0702/0712 11/2SM -SN OVC015
FM071200 32012G22KT P6SM -SN OVC040
TEMPO 0712/0714 3SM -SN OVC020 RMK FCST BASED ON AUTO OBS. NXT FCST BY 070800Z



MET'MAP, la Météo Aéronautique d'un coup d'oeil ! - Copyright ORBIFLY Décembre 2007 - Disclaimer

ORBIFLY MET'MAP TEAM :

Programmation & Développement : Alexandra Zaïnal
Sur une idée originale de : Baudouin d'Aumeries
Assistance à la programmation : Marc-Olivier Méhu
Soutien technique & logistique : Manuel Goepfert

Contact : metmap@orbifly.com




SOURCES & CREDITS :

   NOAA